createdAt,value
2018-02-20T00:00:03.159Z,970.26
2018-02-20T00:00:13.262Z,970.26
2018-02-20T00:00:23.293Z,970.28
2018-02-20T00:00:33.374Z,970.26
2018-02-20T00:00:43.479Z,970.26
2018-02-20T00:00:53.544Z,970.28
2018-02-20T00:01:03.640Z,970.22
2018-02-20T00:01:13.703Z,970.28
2018-02-20T00:01:23.753Z,970.24
2018-02-20T00:01:33.866Z,970.28
2018-02-20T00:01:43.967Z,970.22
2018-02-20T00:01:54.034Z,970.22
2018-02-20T00:02:04.135Z,970.22
2018-02-20T00:02:14.179Z,970.22
2018-02-20T00:02:24.284Z,970.22
2018-02-20T00:02:34.365Z,970.26
2018-02-20T00:02:44.444Z,970.26
2018-02-20T00:02:54.526Z,970.22
2018-02-20T00:03:04.610Z,970.22
2018-02-20T00:03:14.673Z,970.22
2018-02-20T00:03:24.765Z,970.22
2018-02-20T00:03:34.854Z,970.22
2018-02-20T00:03:44.918Z,970.22
2018-02-20T00:03:55.070Z,970.22
2018-02-20T00:04:05.080Z,970.2
2018-02-20T00:04:15.158Z,970.22
2018-02-20T00:04:25.249Z,970.2
2018-02-20T00:04:35.319Z,970.22
2018-02-20T00:04:45.417Z,970.2
2018-02-20T00:04:55.504Z,970.22
2018-02-20T00:05:05.558Z,970.2
2018-02-20T00:05:15.640Z,970.2
2018-02-20T00:05:25.728Z,970.2
2018-02-20T00:05:35.803Z,970.22
2018-02-20T00:05:45.906Z,970.2
2018-02-20T00:05:55.979Z,970.2
2018-02-20T00:06:06.035Z,970.18
2018-02-20T00:06:16.115Z,970.2
2018-02-20T00:06:26.195Z,970.18
2018-02-20T00:06:36.177Z,970.18
2018-02-20T00:06:46.381Z,970.18
2018-02-20T00:06:56.451Z,970.18
2018-02-20T00:07:06.551Z,970.16
2018-02-20T00:07:16.624Z,970.18
2018-02-20T00:07:26.730Z,970.18
2018-02-20T00:07:36.793Z,970.16
2018-02-20T00:07:46.842Z,970.18
2018-02-20T00:07:56.939Z,970.16
2018-02-20T00:08:07.037Z,970.16
2018-02-20T00:08:17.117Z,970.18
2018-02-20T00:08:27.196Z,970.16
2018-02-20T00:08:37.290Z,970.16
2018-02-20T00:08:47.339Z,970.16
2018-02-20T00:08:57.445Z,970.16
2018-02-20T00:09:07.543Z,970.16
2018-02-20T00:09:17.606Z,970.16
2018-02-20T00:09:27.687Z,970.16
2018-02-20T00:09:37.749Z,970.16
2018-02-20T00:09:47.831Z,970.16
2018-02-20T00:09:57.925Z,970.16
2018-02-20T00:10:07.998Z,970.14
2018-02-20T00:10:18.092Z,970.14
2018-02-20T00:10:28.176Z,970.12
2018-02-20T00:10:38.224Z,970.16
2018-02-20T00:10:48.319Z,970.14
2018-02-20T00:10:58.408Z,970.16
2018-02-20T00:11:08.481Z,970.12
2018-02-20T00:11:18.577Z,970.12
2018-02-20T00:11:28.626Z,970.14
2018-02-20T00:11:38.712Z,970.14
2018-02-20T00:11:48.806Z,970.12
2018-02-20T00:11:58.897Z,970.16
2018-02-20T00:12:08.972Z,970.14
2018-02-20T00:12:19.080Z,970.12
2018-02-20T00:12:29.107Z,970.14
2018-02-20T00:12:39.200Z,970.14
2018-02-20T00:12:49.287Z,970.12
2018-02-20T00:12:59.375Z,970.12
2018-02-20T00:13:09.460Z,970.12
2018-02-20T00:13:19.542Z,970.14
2018-02-20T00:13:29.585Z,970.12
2018-02-20T00:13:39.684Z,970.12
2018-02-20T00:13:49.772Z,970.1
2018-02-20T00:13:59.844Z,970.1
2018-02-20T00:14:09.950Z,970.12
2018-02-20T00:14:20.011Z,970.12
2018-02-20T00:14:30.101Z,970.12
2018-02-20T00:14:40.165Z,970.1
2018-02-20T00:14:50.247Z,970.12
2018-02-20T00:15:00.341Z,970.1
2018-02-20T00:15:10.420Z,970.12
2018-02-20T00:15:20.352Z,970.12
2018-02-20T00:15:30.552Z,970.1
2018-02-20T00:15:40.630Z,970.12
2018-02-20T00:15:50.621Z,970.12
2018-02-20T00:16:00.811Z,970.08
2018-02-20T00:16:10.894Z,970.12
2018-02-20T00:16:20.987Z,970.12
2018-02-20T00:16:31.069Z,970.1
2018-02-20T00:16:41.108Z,970.08
2018-02-20T00:16:51.202Z,970.08
2018-02-20T00:17:01.287Z,970.1
2018-02-20T00:17:11.370Z,970.12
2018-02-20T00:17:21.479Z,970.12
2018-02-20T00:17:31.562Z,970.1
2018-02-20T00:17:41.627Z,970.08
2018-02-20T00:17:51.729Z,970.1
2018-02-20T00:18:01.803Z,970.1
2018-02-20T00:18:11.866Z,970.08
2018-02-20T00:18:21.962Z,970.1
2018-02-20T00:18:32.040Z,970.1
2018-02-20T00:18:42.128Z,970.1
2018-02-20T00:18:52.206Z,970.1
2018-02-20T00:19:02.268Z,970.1
2018-02-20T00:19:12.362Z,970.1
2018-02-20T00:19:22.436Z,970.12
2018-02-20T00:19:32.511Z,970.1
2018-02-20T00:19:42.599Z,970.1
2018-02-20T00:19:52.641Z,970.1
2018-02-20T00:20:02.629Z,970.12
2018-02-20T00:20:12.827Z,970.12
2018-02-20T00:20:22.900Z,970.1
2018-02-20T00:20:32.993Z,970.1
2018-02-20T00:20:43.044Z,970.1
2018-02-20T00:20:53.132Z,970.1
2018-02-20T00:21:03.214Z,970.08
2018-02-20T00:21:13.301Z,970.1
2018-02-20T00:21:23.380Z,970.08
2018-02-20T00:21:33.463Z,970.08
2018-02-20T00:21:43.536Z,970.08
2018-02-20T00:21:53.619Z,970.08
2018-02-20T00:22:03.699Z,970.1
2018-02-20T00:22:13.771Z,970.08
2018-02-20T00:22:23.882Z,970.08
2018-02-20T00:22:33.927Z,970.08
2018-02-20T00:22:44.016Z,970.08
2018-02-20T00:22:54.112Z,970.08
2018-02-20T00:23:04.201Z,970.08
2018-02-20T00:23:14.270Z,970.08
2018-02-20T00:23:24.326Z,970.08
2018-02-20T00:23:34.411Z,970.06
2018-02-20T00:23:44.492Z,970.06
2018-02-20T00:23:54.585Z,970.04
2018-02-20T00:24:04.660Z,970.08
2018-02-20T00:24:14.769Z,970.06
2018-02-20T00:24:24.695Z,970.08
2018-02-20T00:24:34.888Z,970.06
2018-02-20T00:24:44.984Z,970.06
2018-02-20T00:24:55.069Z,970.04
2018-02-20T00:25:05.131Z,970.08
2018-02-20T00:25:15.192Z,970.04
2018-02-20T00:25:25.275Z,970.08
2018-02-20T00:25:35.370Z,970.04
2018-02-20T00:25:45.470Z,970.08
2018-02-20T00:25:55.558Z,970.04
2018-02-20T00:26:05.617Z,970.08
2018-02-20T00:26:15.708Z,970.08
2018-02-20T00:26:25.760Z,970.08
2018-02-20T00:26:35.862Z,970.08
2018-02-20T00:26:45.946Z,970.08
2018-02-20T00:26:55.881Z,970.06
2018-02-20T00:27:06.111Z,970.06
2018-02-20T00:27:16.206Z,970.08
2018-02-20T00:27:26.290Z,970.06
2018-02-20T00:27:36.342Z,970.08
2018-02-20T00:27:46.438Z,970.04
2018-02-20T00:27:56.519Z,970.08
2018-02-20T00:28:06.613Z,970.08
2018-02-20T00:28:16.677Z,970.08
2018-02-20T00:28:26.770Z,970.06
2018-02-20T00:28:36.831Z,970.08
2018-02-20T00:28:46.914Z,970.04
2018-02-20T00:28:57.017Z,970.06
2018-02-20T00:29:07.097Z,970.06
2018-02-20T00:29:17.180Z,970.04
2018-02-20T00:29:27.264Z,970.06
2018-02-20T00:29:37.346Z,970.06
2018-02-20T00:29:47.392Z,970.06
2018-02-20T00:29:57.483Z,970.04
2018-02-20T00:30:07.579Z,970.06
2018-02-20T00:30:17.669Z,970.06
2018-02-20T00:30:27.740Z,970.04
2018-02-20T00:30:37.809Z,970.06
2018-02-20T00:30:47.861Z,970.06
2018-02-20T00:30:57.964Z,970.04
2018-02-20T00:31:08.069Z,970.04
2018-02-20T00:31:18.130Z,970.06
2018-02-20T00:31:28.175Z,970.06
2018-02-20T00:31:38.266Z,970.04
2018-02-20T00:31:48.357Z,970.04
2018-02-20T00:31:58.444Z,970.06
2018-02-20T00:32:08.525Z,970.02
2018-02-20T00:32:18.616Z,970.04
2018-02-20T00:32:28.661Z,970.06
2018-02-20T00:32:38.750Z,970.06
2018-02-20T00:32:48.839Z,970.04
2018-02-20T00:32:58.910Z,970.04
2018-02-20T00:33:09.011Z,970.02
2018-02-20T00:33:19.085Z,970.02
2018-02-20T00:33:29.129Z,970.02
2018-02-20T00:33:39.218Z,970.04
2018-02-20T00:33:49.314Z,970.02
2018-02-20T00:33:59.396Z,970.02
2018-02-20T00:34:09.492Z,970.04
2018-02-20T00:34:19.925Z,970.04
2018-02-20T00:34:29.627Z,970.04
2018-02-20T00:34:39.722Z,970.04
2018-02-20T00:34:49.793Z,970.04
2018-02-20T00:34:59.883Z,970.04
2018-02-20T00:35:09.970Z,970.02
2018-02-20T00:35:20.009Z,970
2018-02-20T00:35:30.101Z,970
2018-02-20T00:35:40.190Z,970.02
2018-02-20T00:35:50.276Z,970.02
2018-02-20T00:36:00.369Z,970.04
2018-02-20T00:36:10.416Z,970.02
2018-02-20T00:36:20.512Z,970.04
2018-02-20T00:36:30.602Z,970.04
2018-02-20T00:36:40.680Z,970.04
2018-02-20T00:36:50.772Z,970.02
2018-02-20T00:37:00.855Z,970.02
2018-02-20T00:37:10.886Z,970.04
2018-02-20T00:37:21.036Z,970.04
2018-02-20T00:37:31.109Z,970.04
2018-02-20T00:37:41.163Z,970.02
2018-02-20T00:37:51.245Z,970.02
2018-02-20T00:38:01.330Z,970.04
2018-02-20T00:38:11.428Z,970.02
2018-02-20T00:38:21.350Z,970.04
2018-02-20T00:38:31.548Z,970
2018-02-20T00:38:41.644Z,970
2018-02-20T00:38:51.730Z,970.04
2018-02-20T00:39:01.811Z,970.02
2018-02-20T00:39:11.904Z,970.04
2018-02-20T00:39:21.996Z,970.04
2018-02-20T00:39:32.033Z,970.04
2018-02-20T00:39:42.125Z,970
2018-02-20T00:39:52.220Z,970
2018-02-20T00:40:02.293Z,970.04
2018-02-20T00:40:12.370Z,970
2018-02-20T00:40:22.414Z,970.04
2018-02-20T00:40:32.499Z,970.02
2018-02-20T00:40:42.593Z,970
2018-02-20T00:40:52.662Z,970
2018-02-20T00:41:02.763Z,970.02
2018-02-20T00:41:12.815Z,970.02
2018-02-20T00:41:22.904Z,970.04
2018-02-20T00:41:32.998Z,970.04
2018-02-20T00:41:43.073Z,970
2018-02-20T00:41:53.124Z,970.04
2018-02-20T00:42:03.218Z,969.98
2018-02-20T00:42:13.303Z,970
2018-02-20T00:42:23.402Z,970.02
2018-02-20T00:42:33.474Z,970.02
2018-02-20T00:42:43.549Z,970.02
2018-02-20T00:42:53.640Z,970.02
2018-02-20T00:43:03.686Z,969.98
2018-02-20T00:43:13.774Z,970
2018-02-20T00:43:23.853Z,969.98
2018-02-20T00:43:33.946Z,970
2018-02-20T00:43:44.024Z,970
2018-02-20T00:43:54.099Z,970
2018-02-20T00:44:04.162Z,970
2018-02-20T00:44:14.245Z,969.98
2018-02-20T00:44:24.347Z,970
2018-02-20T00:44:34.406Z,969.98
2018-02-20T00:44:44.519Z,970.02
2018-02-20T00:44:54.546Z,970
2018-02-20T00:45:04.643Z,969.98
2018-02-20T00:45:14.715Z,970
2018-02-20T00:45:24.798Z,969.98
2018-02-20T00:45:34.742Z,969.98
2018-02-20T00:45:44.949Z,969.98
2018-02-20T00:45:55.026Z,969.98
2018-02-20T00:46:05.122Z,969.98
2018-02-20T00:46:15.208Z,969.98
2018-02-20T00:46:25.285Z,969.98
2018-02-20T00:46:35.360Z,969.98
2018-02-20T00:46:45.420Z,969.98
2018-02-20T00:46:55.515Z,969.98
2018-02-20T00:47:05.609Z,969.98
2018-02-20T00:47:15.698Z,969.98
2018-02-20T00:47:25.804Z,969.98
2018-02-20T00:47:35.841Z,969.98
2018-02-20T00:47:45.932Z,969.98
2018-02-20T00:47:56.027Z,969.98
2018-02-20T00:48:06.107Z,970
2018-02-20T00:48:16.037Z,969.98
2018-02-20T00:48:26.227Z,969.98
2018-02-20T00:48:36.316Z,970
2018-02-20T00:48:46.410Z,969.98
2018-02-20T00:48:56.500Z,969.98
2018-02-20T00:49:06.574Z,970
2018-02-20T00:49:16.625Z,970
2018-02-20T00:49:26.969Z,969.98
2018-02-20T00:49:36.800Z,969.98
2018-02-20T00:49:46.893Z,970
2018-02-20T00:49:56.969Z,969.98
2018-02-20T00:50:07.041Z,970
2018-02-20T00:50:17.109Z,969.98
2018-02-20T00:50:27.207Z,970
2018-02-20T00:50:37.277Z,969.98
2018-02-20T00:50:47.380Z,969.98
2018-02-20T00:50:57.458Z,969.98
2018-02-20T00:51:07.495Z,970
2018-02-20T00:51:17.591Z,970
2018-02-20T00:51:27.686Z,969.98
2018-02-20T00:51:37.771Z,969.98
2018-02-20T00:51:47.860Z,969.98
2018-02-20T00:51:57.940Z,969.98
2018-02-20T00:52:08.021Z,969.98
2018-02-20T00:52:18.073Z,969.98
2018-02-20T00:52:28.180Z,969.98
2018-02-20T00:52:38.252Z,969.98
2018-02-20T00:52:48.346Z,969.96
2018-02-20T00:52:58.421Z,970
2018-02-20T00:53:08.514Z,969.98
2018-02-20T00:53:18.593Z,969.98
2018-02-20T00:53:28.673Z,969.98
2018-02-20T00:53:38.730Z,970
2018-02-20T00:53:48.827Z,969.98
2018-02-20T00:53:58.918Z,969.96
2018-02-20T00:54:09.006Z,969.98
2018-02-20T00:54:19.084Z,969.98
2018-02-20T00:54:29.171Z,970
2018-02-20T00:54:39.229Z,970
2018-02-20T00:54:49.313Z,970
2018-02-20T00:54:59.406Z,969.98
2018-02-20T00:55:09.499Z,970
2018-02-20T00:55:19.531Z,970
2018-02-20T00:55:29.623Z,970
2018-02-20T00:55:39.711Z,970
2018-02-20T00:55:49.803Z,970
2018-02-20T00:55:59.894Z,969.96
2018-02-20T00:56:09.953Z,970
2018-02-20T00:56:20.024Z,970
2018-02-20T00:56:30.110Z,970
2018-02-20T00:56:40.188Z,970
2018-02-20T00:56:50.282Z,970
2018-02-20T00:57:00.374Z,970
2018-02-20T00:57:10.444Z,969.98
2018-02-20T00:57:20.550Z,969.96
2018-02-20T00:57:30.580Z,969.98
2018-02-20T00:57:40.674Z,970.02
2018-02-20T00:57:50.757Z,970
2018-02-20T00:58:00.859Z,969.98
2018-02-20T00:58:10.946Z,969.98
2018-02-20T00:58:21.028Z,970
2018-02-20T00:58:31.090Z,969.98
2018-02-20T00:58:41.191Z,969.98
2018-02-20T00:58:51.233Z,970
2018-02-20T00:59:01.321Z,969.98
2018-02-20T00:59:11.415Z,969.96
2018-02-20T00:59:21.499Z,969.98
2018-02-20T00:59:31.594Z,969.98
2018-02-20T00:59:41.633Z,969.96
2018-02-20T00:59:51.720Z,969.98
2018-02-20T01:00:01.837Z,969.96
2018-02-20T01:00:11.905Z,969.98
2018-02-20T01:00:21.966Z,969.96
2018-02-20T01:00:32.061Z,969.98
2018-02-20T01:00:42.119Z,969.98
2018-02-20T01:00:52.200Z,969.98
2018-02-20T01:01:02.283Z,969.96
2018-02-20T01:01:12.373Z,969.96
2018-02-20T01:01:22.459Z,969.94
2018-02-20T01:01:32.542Z,969.96
2018-02-20T01:01:42.604Z,969.94
2018-02-20T01:01:52.694Z,969.96
2018-02-20T01:02:02.784Z,969.96
2018-02-20T01:02:12.859Z,969.96
2018-02-20T01:02:22.973Z,969.98
2018-02-20T01:02:33.044Z,969.94
2018-02-20T01:02:43.086Z,969.94
2018-02-20T01:02:53.181Z,969.96
2018-02-20T01:03:03.168Z,969.92
2018-02-20T01:03:13.361Z,969.92
2018-02-20T01:03:23.444Z,969.92
2018-02-20T01:03:33.522Z,969.94
2018-02-20T01:03:43.609Z,969.94
2018-02-20T01:03:53.666Z,969.92
2018-02-20T01:04:03.751Z,969.94
2018-02-20T01:04:13.840Z,969.94
2018-02-20T01:04:23.932Z,969.94
2018-02-20T01:04:33.865Z,969.94
2018-02-20T01:04:44.100Z,969.94
2018-02-20T01:04:54.171Z,969.92
2018-02-20T01:05:04.244Z,969.94
2018-02-20T01:05:14.326Z,969.94
2018-02-20T01:05:24.424Z,969.94
2018-02-20T01:05:34.491Z,969.94
2018-02-20T01:05:44.574Z,969.94
2018-02-20T01:05:54.628Z,969.96
2018-02-20T01:06:04.728Z,969.94
2018-02-20T01:06:14.819Z,969.96
2018-02-20T01:06:24.885Z,969.96
2018-02-20T01:06:34.982Z,969.94
2018-02-20T01:06:45.039Z,969.98
2018-02-20T01:06:55.117Z,969.96
2018-02-20T01:07:05.211Z,969.96
2018-02-20T01:07:15.300Z,969.96
2018-02-20T01:07:25.401Z,969.98
2018-02-20T01:07:35.487Z,969.96
2018-02-20T01:07:45.521Z,969.92
2018-02-20T01:07:55.618Z,969.96
2018-02-20T01:08:05.714Z,969.92
2018-02-20T01:08:15.795Z,969.94
2018-02-20T01:08:25.886Z,969.96
2018-02-20T01:08:35.958Z,969.96
2018-02-20T01:08:45.913Z,969.96
2018-02-20T01:08:56.117Z,969.98
2018-02-20T01:09:06.208Z,969.96
2018-02-20T01:09:16.298Z,969.92
2018-02-20T01:09:26.377Z,969.96
2018-02-20T01:09:36.478Z,969.92
2018-02-20T01:09:46.516Z,969.9
2018-02-20T01:09:56.603Z,969.92
2018-02-20T01:10:06.685Z,969.92
2018-02-20T01:10:16.784Z,969.92
2018-02-20T01:10:26.721Z,969.92
2018-02-20T01:10:36.799Z,969.92
2018-02-20T01:10:46.987Z,969.92
2018-02-20T01:10:57.087Z,969.92
2018-02-20T01:11:07.176Z,969.92
2018-02-20T01:11:17.278Z,969.98
2018-02-20T01:11:27.346Z,969.92
2018-02-20T01:11:37.426Z,969.92
2018-02-20T01:11:47.483Z,969.9
2018-02-20T01:11:57.576Z,969.9
2018-02-20T01:12:07.660Z,969.92
2018-02-20T01:12:17.745Z,969.92
2018-02-20T01:12:27.844Z,969.92
2018-02-20T01:12:37.907Z,969.92
2018-02-20T01:12:47.996Z,969.9
2018-02-20T01:12:58.108Z,969.92
2018-02-20T01:13:08.144Z,969.9
2018-02-20T01:13:18.231Z,969.92
2018-02-20T01:13:28.354Z,969.92
2018-02-20T01:13:38.432Z,969.92
2018-02-20T01:13:48.495Z,969.9
2018-02-20T01:13:58.571Z,969.9
2018-02-20T01:14:08.623Z,969.9
2018-02-20T01:14:18.552Z,969.9
2018-02-20T01:14:28.743Z,969.9
2018-02-20T01:14:38.875Z,969.9
2018-02-20T01:14:48.923Z,969.88
2018-02-20T01:14:59.006Z,969.88
2018-02-20T01:15:09.098Z,969.9
2018-02-20T01:15:19.204Z,969.9
2018-02-20T01:15:29.266Z,969.88
2018-02-20T01:15:39.346Z,969.88
2018-02-20T01:15:49.430Z,969.9
2018-02-20T01:15:59.515Z,969.88
2018-02-20T01:16:09.556Z,969.9
2018-02-20T01:16:19.650Z,969.88
2018-02-20T01:16:29.736Z,969.88
2018-02-20T01:16:39.817Z,969.86
2018-02-20T01:16:49.904Z,969.88
2018-02-20T01:16:59.987Z,969.9
2018-02-20T01:17:10.032Z,969.88
2018-02-20T01:17:20.137Z,969.88
2018-02-20T01:17:30.222Z,969.86
2018-02-20T01:17:40.296Z,969.9
2018-02-20T01:17:50.379Z,969.88
2018-02-20T01:18:00.433Z,969.88
2018-02-20T01:18:10.523Z,969.86
2018-02-20T01:18:20.617Z,969.88
2018-02-20T01:18:30.701Z,969.88
2018-02-20T01:18:40.797Z,969.86
2018-02-20T01:18:50.866Z,969.86
2018-02-20T01:19:00.930Z,969.88
2018-02-20T01:19:11.023Z,969.86
2018-02-20T01:19:21.112Z,969.86
2018-02-20T01:19:31.187Z,969.85
2018-02-20T01:19:41.294Z,969.85
2018-02-20T01:19:51.320Z,969.85
2018-02-20T01:20:01.410Z,969.83
2018-02-20T01:20:11.496Z,969.85
2018-02-20T01:20:21.578Z,969.86
2018-02-20T01:20:31.667Z,969.85
2018-02-20T01:20:41.746Z,969.86
2018-02-20T01:20:51.788Z,969.85
2018-02-20T01:21:01.881Z,969.83
2018-02-20T01:21:11.854Z,969.86
2018-02-20T01:21:22.056Z,969.85
2018-02-20T01:21:32.128Z,969.85
2018-02-20T01:21:42.197Z,969.86
2018-02-20T01:21:52.290Z,969.85
2018-02-20T01:22:02.348Z,969.85
2018-02-20T01:22:12.431Z,969.85
2018-02-20T01:22:22.543Z,969.83
2018-02-20T01:22:32.626Z,969.85
2018-02-20T01:22:42.711Z,969.85
2018-02-20T01:22:52.642Z,969.85
2018-02-20T01:23:02.846Z,969.85
2018-02-20T01:23:12.929Z,969.85
2018-02-20T01:23:23.013Z,969.85
2018-02-20T01:23:33.157Z,969.85
2018-02-20T01:23:43.237Z,969.83
2018-02-20T01:23:53.357Z,969.85
2018-02-20T01:24:03.300Z,969.85
2018-02-20T01:24:13.518Z,969.86
2018-02-20T01:24:23.583Z,969.85
2018-02-20T01:24:33.591Z,969.85
2018-02-20T01:24:43.663Z,969.86
2018-02-20T01:24:53.745Z,969.85
2018-02-20T01:25:03.807Z,969.85
2018-02-20T01:25:13.891Z,969.86
2018-02-20T01:25:23.973Z,969.85
2018-02-20T01:25:34.042Z,969.85
2018-02-20T01:25:44.094Z,969.85
2018-02-20T01:25:54.190Z,969.85
2018-02-20T01:26:04.274Z,969.85
2018-02-20T01:26:14.365Z,969.85
2018-02-20T01:26:24.449Z,969.85
2018-02-20T01:26:34.528Z,969.86
2018-02-20T01:26:44.464Z,969.85
2018-02-20T01:26:54.655Z,969.85
2018-02-20T01:27:04.759Z,969.85
2018-02-20T01:27:14.838Z,969.83
2018-02-20T01:27:24.944Z,969.86
2018-02-20T01:27:35.023Z,969.85
2018-02-20T01:27:45.105Z,969.85
2018-02-20T01:27:55.184Z,969.85
2018-02-20T01:28:05.236Z,969.83
2018-02-20T01:28:15.322Z,969.85
2018-02-20T01:28:25.408Z,969.85
2018-02-20T01:28:35.498Z,969.85
2018-02-20T01:28:45.530Z,969.85
2018-02-20T01:28:55.510Z,969.85
2018-02-20T01:29:05.701Z,969.85
2018-02-20T01:29:15.791Z,969.85
2018-02-20T01:29:25.875Z,969.86
2018-02-20T01:29:35.970Z,969.85
2018-02-20T01:29:46.050Z,969.85
2018-02-20T01:29:56.095Z,969.85
2018-02-20T01:30:06.180Z,969.86
2018-02-20T01:30:16.272Z,969.83
2018-02-20T01:30:26.373Z,969.81
2018-02-20T01:30:36.291Z,969.86
2018-02-20T01:30:46.385Z,969.83
2018-02-20T01:30:56.475Z,969.85
2018-02-20T01:31:06.668Z,969.83
2018-02-20T01:31:16.769Z,969.85
2018-02-20T01:31:26.861Z,969.86
2018-02-20T01:31:36.940Z,969.85
2018-02-20T01:31:46.989Z,969.81
2018-02-20T01:31:57.086Z,969.83
2018-02-20T01:32:07.167Z,969.83
2018-02-20T01:32:17.250Z,969.83
2018-02-20T01:32:27.367Z,969.85
2018-02-20T01:32:37.418Z,969.83
2018-02-20T01:32:47.477Z,969.85
2018-02-20T01:32:57.590Z,969.86
2018-02-20T01:33:07.674Z,969.81
2018-02-20T01:33:17.760Z,969.85
2018-02-20T01:33:27.839Z,969.83
2018-02-20T01:33:37.894Z,969.83
2018-02-20T01:33:47.978Z,969.83
2018-02-20T01:33:58.058Z,969.83
2018-02-20T01:34:08.159Z,969.83
2018-02-20T01:34:18.134Z,969.83
2018-02-20T01:34:28.324Z,969.83
2018-02-20T01:34:38.409Z,969.85
2018-02-20T01:34:48.459Z,969.83
2018-02-20T01:34:58.549Z,969.83
2018-02-20T01:35:08.643Z,969.85
2018-02-20T01:35:18.719Z,969.83
2018-02-20T01:35:28.795Z,969.83
2018-02-20T01:35:38.857Z,969.85
2018-02-20T01:35:48.940Z,969.85
2018-02-20T01:35:59.022Z,969.83
2018-02-20T01:36:09.112Z,969.85
2018-02-20T01:36:19.189Z,969.83
2018-02-20T01:36:29.250Z,969.83
2018-02-20T01:36:39.329Z,969.83
2018-02-20T01:36:49.435Z,969.83
2018-02-20T01:36:59.514Z,969.83
2018-02-20T01:37:09.598Z,969.85
2018-02-20T01:37:19.699Z,969.85
2018-02-20T01:37:29.781Z,969.85
2018-02-20T01:37:39.828Z,969.81
2018-02-20T01:37:49.929Z,969.83
2018-02-20T01:38:00.012Z,969.85
2018-02-20T01:38:10.089Z,969.85
2018-02-20T01:38:20.175Z,969.86
2018-02-20T01:38:30.226Z,969.85
2018-02-20T01:38:40.311Z,969.85
2018-02-20T01:38:50.412Z,969.86
2018-02-20T01:39:00.491Z,969.83
2018-02-20T01:39:10.581Z,969.83
2018-02-20T01:39:20.655Z,969.86
2018-02-20T01:39:30.710Z,969.86
2018-02-20T01:39:40.788Z,969.86
2018-02-20T01:39:50.922Z,969.86
2018-02-20T01:40:00.980Z,969.85
2018-02-20T01:40:11.042Z,969.85
2018-02-20T01:40:21.136Z,969.85
2018-02-20T01:40:31.218Z,969.86
2018-02-20T01:40:41.149Z,969.83
2018-02-20T01:40:51.241Z,969.85
2018-02-20T01:41:01.443Z,969.86
2018-02-20T01:41:11.526Z,969.85
2018-02-20T01:41:21.629Z,969.86
2018-02-20T01:41:31.695Z,969.86
2018-02-20T01:41:41.772Z,969.85
2018-02-20T01:41:51.834Z,969.86
2018-02-20T01:42:01.922Z,969.86
2018-02-20T01:42:12.020Z,969.86
2018-02-20T01:42:22.124Z,969.85
2018-02-20T01:42:32.175Z,969.86
2018-02-20T01:42:42.238Z,969.85
2018-02-20T01:42:52.319Z,969.86
2018-02-20T01:43:02.401Z,969.85
2018-02-20T01:43:12.485Z,969.83
2018-02-20T01:43:22.558Z,969.85
2018-02-20T01:43:32.509Z,969.86
2018-02-20T01:43:42.600Z,969.86
2018-02-20T01:43:52.795Z,969.86
2018-02-20T01:44:02.884Z,969.83
2018-02-20T01:44:12.809Z,969.85
2018-02-20T01:44:23.059Z,969.83
2018-02-20T01:44:33.110Z,969.83
2018-02-20T01:44:43.183Z,969.83
2018-02-20T01:44:53.279Z,969.83
2018-02-20T01:45:03.342Z,969.85
2018-02-20T01:45:13.409Z,969.83
2018-02-20T01:45:23.486Z,969.85
2018-02-20T01:45:33.587Z,969.85
2018-02-20T01:45:43.651Z,969.85
2018-02-20T01:45:53.744Z,969.85
2018-02-20T01:46:03.795Z,969.83
2018-02-20T01:46:13.888Z,969.86
2018-02-20T01:46:23.983Z,969.85
2018-02-20T01:46:34.063Z,969.85
2018-02-20T01:46:44.137Z,969.86
2018-02-20T01:46:54.191Z,969.86
2018-02-20T01:47:04.273Z,969.83
2018-02-20T01:47:14.365Z,969.85
2018-02-20T01:47:24.466Z,969.83
2018-02-20T01:47:34.540Z,969.85
2018-02-20T01:47:44.643Z,969.83
2018-02-20T01:47:54.705Z,969.83
2018-02-20T01:48:04.771Z,969.83
2018-02-20T01:48:14.859Z,969.85
2018-02-20T01:48:24.942Z,969.83
2018-02-20T01:48:35.023Z,969.85
2018-02-20T01:48:45.099Z,969.85
2018-02-20T01:48:55.189Z,969.85
2018-02-20T01:49:05.245Z,969.83
2018-02-20T01:49:15.336Z,969.85
2018-02-20T01:49:25.418Z,969.86
2018-02-20T01:49:35.510Z,969.85
2018-02-20T01:49:45.589Z,969.85
2018-02-20T01:49:55.649Z,969.85
2018-02-20T01:50:05.747Z,969.83
2018-02-20T01:50:15.824Z,969.85
2018-02-20T01:50:25.901Z,969.85
2018-02-20T01:50:35.935Z,969.85
2018-02-20T01:50:46.038Z,969.85
2018-02-20T01:50:56.120Z,969.85
2018-02-20T01:51:06.209Z,969.85
2018-02-20T01:51:16.287Z,969.85
2018-02-20T01:51:26.240Z,969.86
2018-02-20T01:51:36.436Z,969.86
2018-02-20T01:51:46.529Z,969.86
2018-02-20T01:51:56.621Z,969.85
2018-02-20T01:52:06.693Z,969.85
2018-02-20T01:52:16.791Z,969.85
2018-02-20T01:52:26.898Z,969.86
2018-02-20T01:52:36.941Z,969.86
2018-02-20T01:52:47.028Z,969.85
2018-02-20T01:52:57.107Z,969.85
2018-02-20T01:53:07.200Z,969.85
2018-02-20T01:53:17.282Z,969.85
2018-02-20T01:53:27.364Z,969.85
2018-02-20T01:53:37.462Z,969.83
2018-02-20T01:53:47.549Z,969.86
2018-02-20T01:53:57.582Z,969.85
2018-02-20T01:54:07.680Z,969.85
2018-02-20T01:54:17.770Z,969.85
2018-02-20T01:54:27.855Z,969.85
2018-02-20T01:54:37.945Z,969.85
2018-02-20T01:54:48.032Z,969.85
2018-02-20T01:54:58.131Z,969.85
2018-02-20T01:55:08.199Z,969.85
2018-02-20T01:55:18.262Z,969.83
2018-02-20T01:55:28.350Z,969.83
2018-02-20T01:55:38.454Z,969.85
2018-02-20T01:55:48.517Z,969.83
2018-02-20T01:55:58.600Z,969.85
2018-02-20T01:56:08.683Z,969.85
2018-02-20T01:56:18.723Z,969.81
2018-02-20T01:56:28.823Z,969.83
2018-02-20T01:56:38.913Z,969.81
2018-02-20T01:56:48.998Z,969.81
2018-02-20T01:56:59.091Z,969.81
2018-02-20T01:57:09.174Z,969.81
2018-02-20T01:57:19.275Z,969.79
2018-02-20T01:57:29.340Z,969.81
2018-02-20T01:57:39.400Z,969.79
2018-02-20T01:57:49.478Z,969.81
2018-02-20T01:57:59.574Z,969.83
2018-02-20T01:58:09.693Z,969.81
2018-02-20T01:58:19.738Z,969.77
2018-02-20T01:58:29.821Z,969.81
2018-02-20T01:58:39.909Z,969.79
2018-02-20T01:58:49.963Z,969.81
2018-02-20T01:59:00.047Z,969.79
2018-02-20T01:59:10.138Z,969.79
2018-02-20T01:59:20.235Z,969.81
2018-02-20T01:59:30.158Z,969.77
2018-02-20T01:59:40.383Z,969.79
2018-02-20T01:59:50.441Z,969.79
2018-02-20T02:00:00.525Z,969.79
2018-02-20T02:00:10.613Z,969.77
2018-02-20T02:00:20.705Z,969.79
2018-02-20T02:00:30.772Z,969.79
2018-02-20T02:00:40.888Z,969.79
2018-02-20T02:00:50.908Z,969.77
2018-02-20T02:01:01.006Z,969.77
2018-02-20T02:01:11.089Z,969.77
2018-02-20T02:01:21.185Z,969.77
2018-02-20T02:01:31.266Z,969.77
2018-02-20T02:01:41.348Z,969.77
2018-02-20T02:01:51.398Z,969.81
2018-02-20T02:02:01.490Z,969.77
2018-02-20T02:02:11.578Z,969.77
2018-02-20T02:02:21.677Z,969.79
2018-02-20T02:02:31.601Z,969.77
2018-02-20T02:02:41.799Z,969.79
2018-02-20T02:02:51.887Z,969.77
2018-02-20T02:03:01.963Z,969.77
2018-02-20T02:03:12.015Z,969.77
2018-02-20T02:03:22.095Z,969.75
2018-02-20T02:03:32.199Z,969.75
2018-02-20T02:03:42.279Z,969.77
2018-02-20T02:03:52.360Z,969.79
2018-02-20T02:04:02.450Z,969.77
2018-02-20T02:04:12.501Z,969.77
2018-02-20T02:04:22.586Z,969.77
2018-02-20T02:04:32.680Z,969.77
2018-02-20T02:04:42.760Z,969.75
2018-02-20T02:04:52.845Z,969.77
2018-02-20T02:05:02.924Z,969.77
2018-02-20T02:05:12.970Z,969.75
2018-02-20T02:05:22.943Z,969.79
2018-02-20T02:05:33.144Z,969.77
2018-02-20T02:05:43.236Z,969.77
2018-02-20T02:05:53.214Z,969.77
2018-02-20T02:06:03.390Z,969.77
2018-02-20T02:06:13.350Z,969.75
2018-02-20T02:06:23.550Z,969.77
2018-02-20T02:06:33.643Z,969.77
2018-02-20T02:06:43.717Z,969.75